Time;durP1;ratioP1;P1;durP2;ratioP2;P2;SDS_P1;SDS_P2;PMS_P1;PMS_P2;Temp;Humidity;BMP_temperature;BMP_pressure;BME280_temperature;BME280_humidity;BME280_pressure;Samples;Min_cycle;Max_cycle;Signal;HPM_P1;HPM_P2
2021/05/29 00:01:18;;;;;;;5.50;3.83;;;10.90;99.90;;;12.04;81.56;101371.00;4964447;29;20031;-87
2021/05/29 00:03:44;;;;;;;5.35;4.32;;;10.80;99.90;;;11.90;82.03;101368.56;4965491;28;20027;-83
2021/05/29 00:06:10;;;;;;;5.57;4.30;;;10.70;99.90;;;11.76;82.62;101370.03;4963060;28;20027;-85
2021/05/29 00:08:36;;;;;;;9.98;4.72;;;10.60;99.90;;;11.65;83.59;101376.06;4964114;28;20041;-85
2021/05/29 00:11:03;;;;;;;6.85;4.80;;;10.40;99.90;;;11.58;83.82;101364.66;4965329;28;20422;-82
2021/05/29 00:13:30;;;;;;;9.43;5.03;;;10.30;99.90;;;11.48;84.28;101370.69;4963941;28;20054;-85
2021/05/29 00:15:57;;;;;;;6.25;4.50;;;10.20;99.90;;;11.35;84.47;101376.59;4964299;29;20045;-82
2021/05/29 00:18:25;;;;;;;6.03;4.60;;;10.10;99.90;;;11.16;84.79;101374.34;4963509;29;20395;-85
2021/05/29 00:20:53;;;;;;;5.68;4.78;;;10.00;99.90;;;10.99;85.73;101372.53;4964962;28;20106;-85
2021/05/29 00:23:20;;;;;;;11.38;5.65;;;9.80;99.90;;;10.89;86.36;101363.75;4975357;23;20459;-86
2021/05/29 00:25:47;;;;;;;7.70;5.20;;;9.70;99.90;;;10.80;87.05;101358.25;4956594;29;20027;-84
2021/05/29 00:28:15;;;;;;;7.53;5.13;;;9.60;99.90;;;10.76;87.23;101370.44;4955477;29;20038;-83
2021/05/29 00:30:45;;;;;;;8.57;5.97;;;9.60;99.90;;;10.71;87.27;101368.69;4944581;29;20039;-85
2021/05/29 00:33:12;;;;;;;14.02;5.32;;;9.50;99.90;;;10.70;88.04;101360.63;4966071;28;20141;-84
2021/05/29 00:35:38;;;;;;;8.85;5.80;;;9.50;99.90;;;10.66;88.15;101370.88;4981090;28;20034;-83
2021/05/29 00:38:06;;;;;;;9.70;6.55;;;9.40;99.90;;;10.59;88.50;101371.41;4981202;28;20050;-83
2021/05/29 00:40:34;;;;;;;10.43;6.22;;;9.40;99.90;;;10.53;88.77;101370.78;4975281;28;20030;-84
2021/05/29 00:43:01;;;;;;;7.28;5.07;;;9.40;99.90;;;10.51;89.15;101380.66;4961785;28;20090;-83
2021/05/29 00:45:27;;;;;;;9.63;6.45;;;9.30;99.90;;;10.48;89.49;101372.97;4960997;29;20027;-83
2021/05/29 00:47:56;;;;;;;8.60;5.90;;;9.30;99.90;;;10.45;89.20;101373.66;4961681;28;20031;-84
2021/05/29 00:50:23;;;;;;;8.77;5.63;;;9.20;99.90;;;10.44;89.45;101375.63;4960458;29;20114;-84
2021/05/29 00:52:49;;;;;;;6.72;5.55;;;9.20;99.90;;;10.42;90.29;101377.13;4960255;28;20132;-83
2021/05/29 00:55:17;;;;;;;7.30;5.15;;;9.20;99.90;;;10.39;90.08;101375.84;4959475;28;20074;-84
2021/05/29 00:57:51;;;;;;;7.85;4.85;;;9.10;99.90;;;10.30;90.16;101369.50;4968871;28;20122;-82
2021/05/29 01:00:22;;;;;;;13.05;7.28;;;9.10;99.90;;;10.18;90.37;101371.38;4982222;28;20360;-83
2021/05/29 01:02:51;;;;;;;9.70;6.85;;;9.00;99.90;;;10.04;90.23;101374.38;4980105;28;20027;-83
2021/05/29 01:05:20;;;;;;;10.77;6.68;;;8.90;99.90;;;9.94;90.55;101374.75;4981931;28;20026;-84
2021/05/29 01:07:54;;;;;;;10.38;6.60;;;8.80;99.90;;;9.88;91.24;101373.31;4983586;28;20438;-84
2021/05/29 01:10:25;;;;;;;10.60;7.22;;;8.70;99.90;;;9.84;91.82;101366.78;4970543;28;20031;-83
2021/05/29 01:12:54;;;;;;;12.68;7.40;;;8.70;99.90;;;9.76;91.56;101373.22;4963577;28;20094;-83
2021/05/29 01:15:22;;;;;;;11.35;7.20;;;8.60;99.90;;;9.64;91.54;101373.91;4963306;28;20085;-84
2021/05/29 01:17:48;;;;;;;10.13;6.50;;;8.50;99.90;;;9.55;91.67;101367.56;4966628;28;20039;-83
2021/05/29 01:20:17;;;;;;;9.63;7.35;;;8.40;99.90;;;9.51;91.90;101370.19;4963147;28;20142;-84
2021/05/29 01:22:56;;;;;;;8.63;6.47;;;8.30;99.90;;;9.43;92.10;101375.81;4960231;28;20027;-84
2021/05/29 01:25:32;;;;;;;10.25;7.63;;;8.30;99.90;;;9.44;92.52;101372.66;4959680;29;20032;-84
2021/05/29 01:28:07;;;;;;;10.93;7.28;;;8.30;99.90;;;9.44;92.60;101375.47;4960534;28;20038;-82
2021/05/29 01:30:46;;;;;;;9.55;6.50;;;8.30;99.90;;;9.38;92.58;101371.22;4976112;28;20117;-83
2021/05/29 01:33:28;;;;;;;10.07;6.95;;;8.20;99.90;;;9.37;93.09;101375.19;4977983;28;20027;-83
2021/05/29 01:36:01;;;;;;;11.65;7.72;;;8.20;99.90;;;9.43;93.67;101382.22;4980809;28;20035;-83
2021/05/29 01:38:29;;;;;;;9.80;6.80;;;8.20;99.90;;;9.41;93.24;101378.09;4980548;28;20113;-83
2021/05/29 01:41:13;;;;;;;11.48;6.95;;;8.30;99.90;;;9.34;93.36;101391.75;4979002;28;20062;-82
2021/05/29 01:43:45;;;;;;;10.57;6.82;;;8.20;99.90;;;9.25;93.49;101391.75;4995643;28;20118;-83
2021/05/29 01:46:16;;;;;;;11.02;7.40;;;8.10;99.90;;;9.17;93.54;101387.03;4981410;28;20023;-84
2021/05/29 01:48:45;;;;;;;8.93;6.90;;;8.00;99.90;;;9.10;94.08;101389.50;4980180;28;20177;-83
2021/05/29 01:51:16;;;;;;;9.60;7.38;;;8.00;99.90;;;9.05;94.32;101383.28;4981993;28;20386;-83
2021/05/29 01:53:44;;;;;;;9.98;6.80;;;7.90;99.90;;;9.05;94.31;101394.41;4979434;28;20058;-85
2021/05/29 01:56:14;;;;;;;12.20;7.05;;;7.90;99.90;;;9.08;94.66;101396.53;4980466;28;20034;-84
2021/05/29 01:58:43;;;;;;;11.27;7.53;;;7.90;99.90;;;9.12;94.74;101403.91;4980234;28;20038;-83
2021/05/29 02:01:12;;;;;;;9.90;7.00;;;8.00;99.90;;;9.08;94.46;101404.91;4982248;28;20079;-85
2021/05/29 02:03:44;;;;;;;13.13;7.70;;;7.90;99.90;;;9.03;94.64;101391.94;4980405;28;20061;-82
2021/05/29 02:06:12;;;;;;;11.05;7.18;;;7.90;99.90;;;8.99;94.66;101400.16;4980558;28;20082;-84
2021/05/29 02:08:39;;;;;;;12.40;7.47;;;7.80;99.90;;;8.95;94.73;101395.59;4981797;28;20027;-84
2021/05/29 02:11:05;;;;;;;9.75;6.60;;;7.80;99.90;;;8.89;94.65;101396.91;4965588;28;20045;-81
2021/05/29 02:13:37;;;;;;;11.23;7.18;;;7.80;99.90;;;8.81;94.84;101397.72;4963576;28;20083;-84
2021/05/29 02:16:10;;;;;;;11.48;7.10;;;7.70;99.90;;;8.71;94.64;101395.25;4965015;29;20126;-85
2021/05/29 02:18:42;;;;;;;11.45;7.45;;;7.60;99.90;;;8.66;95.20;101399.03;4971432;28;20035;-83
2021/05/29 02:21:16;;;;;;;10.27;6.95;;;7.50;99.90;;;8.62;94.98;101400.81;4971529;28;20023;-83
2021/05/29 02:23:48;;;;;;;10.15;7.63;;;7.50;99.90;;;8.60;95.39;101391.16;4959737;28;20495;-83
2021/05/29 02:26:21;;;;;;;13.80;7.45;;;7.50;99.90;;;8.60;95.49;101389.22;4959633;29;20121;-83
2021/05/29 02:28:56;;;;;;;10.70;7.45;;;7.50;99.90;;;8.54;95.30;101392.47;4959227;29;20118;-84
2021/05/29 02:31:24;;;;;;;8.85;7.10;;;7.40;99.90;;;8.44;95.60;101393.63;4960208;29;20089;-83
2021/05/29 02:33:50;;;;;;;12.38;7.60;;;7.30;99.90;;;8.38;95.85;101390.16;4962250;28;20039;-85
2021/05/29 02:36:16;;;;;;;12.15;7.75;;;7.30;99.90;;;8.35;95.84;101396.38;4961180;28;20059;-84
2021/05/29 02:38:43;;;;;;;11.38;8.68;;;7.20;99.90;;;8.31;95.92;101391.78;4961640;29;20558;-84
2021/05/29 02:41:14;;;;;;;9.32;7.65;;;7.20;99.90;;;8.26;95.80;101389.94;4961081;29;20475;-84
2021/05/29 02:43:41;;;;;;;11.70;8.07;;;7.20;99.90;;;8.27;96.18;101387.97;4960424;28;20163;-83
2021/05/29 02:46:09;;;;;;;10.80;8.82;;;7.20;99.90;;;8.27;96.04;101390.75;4963134;28;20042;-82
2021/05/29 02:48:36;;;;;;;11.73;8.93;;;7.20;99.90;;;8.25;96.16;101390.28;4962046;29;20111;-84
2021/05/29 02:51:04;;;;;;;14.25;9.85;;;7.10;99.90;;;8.24;96.36;101394.19;4963722;29;20086;-83
2021/05/29 02:53:30;;;;;;;16.35;10.40;;;7.10;99.90;;;8.26;96.65;101389.13;4964006;28;20372;-84
2021/05/29 02:55:56;;;;;;;16.15;9.45;;;7.10;99.90;;;8.29;96.58;101392.09;4966527;29;20098;-84
2021/05/29 02:58:22;;;;;;;13.90;8.98;;;7.20;99.90;;;8.26;96.25;101387.16;4963123;29;20083;-84
2021/05/29 03:00:49;;;;;;;13.00;9.15;;;7.10;99.90;;;8.21;96.43;101384.53;4960443;29;20122;-82
2021/05/29 03:03:16;;;;;;;11.88;8.38;;;7.10;99.90;;;8.12;96.60;101385.66;4958446;28;20080;-84
2021/05/29 03:05:48;;;;;;;13.75;9.27;;;7.00;99.90;;;8.03;96.66;101387.63;4957977;28;20031;-85
2021/05/29 03:08:17;;;;;;;12.23;8.63;;;7.00;99.90;;;8.02;97.36;101383.19;4958231;28;20034;-81
2021/05/29 03:10:45;;;;;;;15.15;8.88;;;6.90;99.90;;;8.00;97.21;101393.78;4973058;28;20031;-82
2021/05/29 03:13:13;;;;;;;12.98;9.23;;;6.90;99.90;;;8.01;97.26;101381.53;4977638;28;20028;-82
2021/05/29 03:15:41;;;;;;;12.55;7.97;;;6.90;99.90;;;8.02;97.26;101385.97;4977562;28;20403;-82
2021/05/29 03:18:07;;;;;;;9.95;7.25;;;6.90;99.90;;;7.99;97.22;101394.97;4979078;28;20026;-83
2021/05/29 03:20:35;;;;;;;12.63;8.48;;;6.90;99.90;;;7.94;97.14;101395.91;4978344;28;20395;-82
2021/05/29 03:23:02;;;;;;;11.95;8.82;;;6.80;99.90;;;7.94;97.42;101390.34;4978374;28;20062;-83
2021/05/29 03:25:29;;;;;;;11.38;8.48;;;6.80;99.90;;;7.96;97.11;101399.22;4978384;28;20078;-83
2021/05/29 03:27:56;;;;;;;13.65;8.82;;;6.80;99.90;;;8.01;97.11;101404.63;4979010;28;20034;-84
2021/05/29 03:30:27;;;;;;;17.00;9.35;;;6.90;99.90;;;8.04;97.24;101401.19;4978661;28;20037;-84
2021/05/29 03:32:58;;;;;;;11.60;8.90;;;6.90;99.90;;;8.08;96.99;101413.31;4962170;28;20031;-83
2021/05/29 03:35:25;;;;;;;9.95;7.95;;;6.90;99.90;;;8.06;96.91;101412.81;4959896;28;20054;-84
2021/05/29 03:37:51;;;;;;;11.18;7.82;;;6.90;99.90;;;8.02;96.88;101420.16;4960217;28;20047;-83
2021/05/29 03:40:17;;;;;;;9.75;7.35;;;6.90;99.90;;;7.96;97.06;101407.56;4960271;28;20035;-83
2021/05/29 03:42:46;;;;;;;10.18;7.13;;;6.80;99.90;;;7.91;96.81;101411.28;4962656;28;20046;-83
2021/05/29 03:45:19;;;;;;;10.30;6.95;;;6.80;99.90;;;7.88;96.86;101409.16;4961609;29;20039;-84
2021/05/29 03:47:48;;;;;;;12.35;8.85;;;6.70;99.90;;;7.91;97.45;101411.28;4970672;28;20036;-84
2021/05/29 03:50:19;;;;;;;11.10;7.53;;;6.80;99.90;;;7.92;97.19;101407.38;4972669;29;20127;-83
2021/05/29 03:52:46;;;;;;;9.43;7.63;;;6.80;99.90;;;7.95;97.16;101414.25;4976182;28;20039;-84
2021/05/29 03:55:20;;;;;;;14.27;7.97;;;6.80;99.90;;;8.00;97.29;101419.66;4975390;28;20083;-82
2021/05/29 03:57:51;;;;;;;10.25;7.25;;;6.80;99.90;;;8.02;97.38;101416.56;4975127;29;20139;-84
2021/05/29 04:00:22;;;;;;;9.35;7.15;;;6.90;99.90;;;8.09;97.24;101419.69;4973696;29;20019;-84
2021/05/29 04:02:49;;;;;;;13.40;7.82;;;6.90;99.90;;;8.13;97.47;101427.06;4965842;28;20110;-82
2021/05/29 04:05:17;;;;;;;12.90;7.32;;;6.90;99.90;;;8.17;97.32;101428.06;4954939;28;20271;-83
2021/05/29 04:07:43;;;;;;;10.27;7.03;;;7.00;99.90;;;8.20;97.38;101423.81;4953238;29;20042;-82
2021/05/29 04:10:20;;;;;;;10.00;7.25;;;7.00;99.90;;;8.20;97.64;101430.19;4964268;28;20034;-83
2021/05/29 04:12:49;;;;;;;10.90;6.85;;;7.00;99.90;;;8.24;97.54;101435.94;4974215;28;20030;-83
2021/05/29 04:15:17;;;;;;;13.48;7.35;;;7.10;99.90;;;8.28;97.67;101436.97;4973298;28;20243;-84
2021/05/29 04:17:46;;;;;;;9.60;7.68;;;7.10;99.90;;;8.30;97.46;101435.50;4974221;28;20027;-82
2021/05/29 04:20:19;;;;;;;9.88;6.80;;;7.10;99.90;;;8.34;97.73;101438.47;4989555;28;20118;-83
2021/05/29 04:22:46;;;;;;;9.73;7.28;;;7.10;99.90;;;8.38;97.64;101440.25;4972949;28;20031;-82
2021/05/29 04:25:22;;;;;;;8.65;6.93;;;7.20;99.90;;;8.45;97.53;101448.13;4974657;28;20117;-82
2021/05/29 04:27:50;;;;;;;9.73;7.35;;;7.30;99.90;;;8.53;97.58;101441.78;4973395;28;20075;-83
2021/05/29 04:30:22;;;;;;;10.13;7.80;;;7.30;99.90;;;8.68;97.66;101440.47;4979039;28;20034;-83
2021/05/29 04:32:49;;;;;;;10.30;8.07;;;7.40;99.90;;;8.85;97.30;101446.88;4968172;28;20188;-84
2021/05/29 04:35:19;;;;;;;13.77;8.00;;;7.60;99.90;;;9.06;97.41;101449.00;4969413;28;20058;-81
2021/05/29 04:37:49;;;;;;;13.85;8.60;;;7.80;99.90;;;9.30;96.96;101452.09;4973546;29;20035;-83
2021/05/29 04:40:21;;;;;;;11.60;7.95;;;7.90;99.90;;;9.49;96.70;101446.97;4959106;28;20487;-82
2021/05/29 04:42:49;;;;;;;11.48;7.35;;;8.10;99.90;;;9.68;96.12;101458.56;4959488;28;20107;-83
2021/05/29 04:45:16;;;;;;;12.13;8.00;;;8.30;99.90;;;9.83;96.14;101454.41;4958778;28;20031;-83
2021/05/29 04:47:43;;;;;;;10.00;7.30;;;8.40;99.90;;;10.03;96.00;101454.50;4958189;28;20511;-82
2021/05/29 04:50:14;;;;;;;10.90;8.00;;;8.60;99.90;;;10.24;95.51;101460.16;4959658;28;20035;-84
2021/05/29 04:52:41;;;;;;;11.18;7.80;;;8.70;99.90;;;10.43;94.79;101457.78;4959243;28;20110;-81
2021/05/29 04:55:09;;;;;;;10.18;7.00;;;8.90;99.90;;;10.67;94.64;101465.50;4958515;29;20050;-85
2021/05/29 04:57:35;;;;;;;10.95;8.38;;;9.10;99.90;;;10.91;93.91;101467.66;4958511;29;20066;-82
2021/05/29 05:00:04;;;;;;;10.88;8.57;;;9.30;99.90;;;11.13;92.69;101480.44;4959205;28;20506;-83
2021/05/29 05:02:30;;;;;;;9.32;7.57;;;9.50;99.90;;;11.37;92.26;101477.75;4964374;28;20029;-84
2021/05/29 05:04:56;;;;;;;10.07;6.43;;;9.70;99.90;;;11.65;91.48;101479.59;4964182;29;20030;-83
2021/05/29 05:07:22;;;;;;;12.45;7.72;;;10.00;99.90;;;11.89;90.33;101481.69;4964818;29;20074;-82
2021/05/29 05:09:47;;;;;;;14.05;9.27;;;10.30;99.90;;;12.09;88.87;101489.19;4972777;28;20423;-81
2021/05/29 05:12:13;;;;;;;9.93;7.38;;;10.40;99.90;;;12.31;87.85;101481.50;4983662;28;20031;-84
2021/05/29 05:14:39;;;;;;;13.68;9.75;;;10.60;99.90;;;12.48;85.94;101486.88;4982635;28;20434;-81
2021/05/29 05:17:05;;;;;;;14.30;10.13;;;10.80;99.90;;;12.67;84.74;101495.50;4983425;28;20030;-86
2021/05/29 05:19:32;;;;;;;14.18;9.63;;;11.00;99.90;;;12.82;83.80;101503.19;4989173;28;20039;-85
2021/05/29 05:21:58;;;;;;;13.88;8.55;;;11.10;99.90;;;13.06;83.22;101505.13;4987873;28;20109;-83
2021/05/29 05:24:25;;;;;;;12.98;9.02;;;11.40;99.90;;;13.29;82.27;101511.06;4985669;28;20035;-85
2021/05/29 05:26:51;;;;;;;14.23;10.80;;;11.70;99.90;;;13.50;81.07;101500.44;4983629;28;20046;-86
2021/05/29 05:29:17;;;;;;;17.42;10.55;;;11.80;99.90;;;13.63;79.17;101499.22;4983487;28;20118;-84
2021/05/29 05:31:44;;;;;;;19.13;11.52;;;12.00;99.90;;;13.78;78.92;101498.44;4977404;28;20039;-83
2021/05/29 05:34:11;;;;;;;17.67;13.25;;;12.10;99.90;;;13.58;79.17;101507.91;4966096;28;20031;-84
2021/05/29 05:36:41;;;;;;;17.13;11.57;;;12.10;99.90;;;13.86;78.61;101500.28;4965943;29;20051;-84
2021/05/29 05:39:10;;;;;;;15.10;11.32;;;12.30;99.90;;;14.08;77.55;101498.84;4961095;29;20110;-83
2021/05/29 05:41:38;;;;;;;16.08;11.90;;;12.40;99.90;;;14.26;76.50;101498.13;4958584;28;20035;-84
2021/05/29 05:44:06;;;;;;;13.68;10.43;;;12.60;99.90;;;14.45;76.37;101516.28;4959630;28;20023;-83
2021/05/29 05:46:33;;;;;;;10.27;8.18;;;12.70;99.90;;;14.61;75.45;101511.44;4960464;29;20029;-83
2021/05/29 05:49:00;;;;;;;17.38;8.73;;;12.80;99.90;;;14.82;74.75;101503.53;4958019;29;20038;-83
2021/05/29 05:51:30;;;;;;;13.55;10.25;;;13.00;99.90;;;15.00;73.81;101507.56;4958419;28;20555;-87
2021/05/29 05:53:56;;;;;;;13.27;10.27;;;13.20;99.90;;;14.96;72.79;101509.47;4958592;28;20522;-85
2021/05/29 05:56:28;;;;;;;17.90;9.45;;;13.30;99.90;;;15.15;72.41;101515.16;4957353;29;20384;-83
2021/05/29 05:58:58;;;;;;;11.30;8.95;;;13.50;99.90;;;15.53;71.89;101513.56;4957058;29;20031;-85
2021/05/29 06:01:27;;;;;;;16.63;11.18;;;13.70;99.90;;;15.55;72.42;101517.63;4957751;29;20127;-86
2021/05/29 06:03:54;;;;;;;11.13;8.85;;;13.80;99.90;;;15.95;71.02;101522.88;4958948;28;20070;-83
2021/05/29 06:06:21;;;;;;;11.65;8.70;;;14.10;99.90;;;16.29;68.47;101530.34;4959493;29;20579;-87
2021/05/29 06:08:47;;;;;;;12.02;8.95;;;14.30;99.90;;;16.27;68.44;101531.91;4959186;28;20031;-86
2021/05/29 06:11:14;;;;;;;13.93;10.07;;;14.40;99.90;;;16.41;67.97;101529.31;4957942;29;20027;-86
2021/05/29 06:19:14;;;;;;;10.23;9.02;;;15.00;99.90;;;17.15;65.58;101519.22;4959848;29;20163;-89
2021/05/29 06:21:49;;;;;;;13.25;10.25;;;15.20;99.90;;;16.85;66.57;101524.03;4959294;29;20405;-89
2021/05/29 06:24:21;;;;;;;15.40;9.23;;;15.20;99.90;;;17.17;65.48;101519.69;4983373;23;20505;-78
2021/05/29 06:26:50;;;;;;;12.63;8.93;;;15.40;99.90;;;17.61;63.41;101521.88;4932299;29;20055;-86
2021/05/29 06:29:17;;;;;;;9.25;8.07;;;15.60;99.90;;;17.98;61.66;101521.91;4918399;29;20028;-86
2021/05/29 06:31:46;;;;;;;11.55;8.85;;;15.90;99.90;;;18.09;61.83;101520.00;4934875;29;20055;-85
2021/05/29 06:34:13;;;;;;;10.98;8.98;;;16.00;99.90;;;18.24;61.37;101521.75;4918932;29;20440;-86
2021/05/29 06:36:39;;;;;;;14.93;8.70;;;16.10;99.90;;;18.54;60.61;101521.66;4921177;29;20036;-85
2021/05/29 06:39:06;;;;;;;11.75;10.45;;;16.30;99.90;;;18.53;59.33;101523.69;4925595;29;20036;-84
2021/05/29 06:41:35;;;;;;;13.77;10.85;;;16.50;99.90;;;18.54;58.65;101535.81;4932041;29;20035;-88
2021/05/29 06:44:04;;;;;;;12.43;10.88;;;16.60;99.90;;;18.56;58.48;101531.38;4923639;29;20114;-88
2021/05/29 06:46:30;;;;;;;18.13;11.75;;;16.50;99.90;;;18.35;58.68;101542.47;4919657;29;20028;-85
2021/05/29 06:48:56;;;;;;;13.82;10.55;;;16.60;99.90;;;18.24;59.89;101548.03;4918889;29;20063;-84
2021/05/29 06:51:34;;;;;;;15.13;10.73;;;16.40;99.90;;;18.32;59.50;101544.09;4919588;29;20024;-87
2021/05/29 06:54:05;;;;;;;11.50;9.80;;;16.40;99.90;;;18.51;58.28;101556.41;4919338;29;20150;-88
2021/05/29 06:59:15;;;;;;;13.70;9.32;;;16.80;99.90;;;19.36;56.41;101561.47;4920965;29;20080;-84
2021/05/29 07:01:41;;;;;;;19.08;11.45;;;17.10;99.90;;;19.03;56.83;101561.69;4918352;29;20028;-84
2021/05/29 07:04:14;;;;;;;20.83;12.25;;;17.10;99.90;;;19.02;56.21;101562.88;4920372;29;20028;-84
2021/05/29 07:06:42;;;;;;;15.60;11.80;;;17.20;99.90;;;18.98;55.99;101558.38;4919253;29;20029;-85
2021/05/29 07:09:08;;;;;;;14.35;11.13;;;17.10;99.90;;;18.14;58.81;101562.88;4916957;29;20571;-85
2021/05/29 07:11:37;;;;;;;17.38;11.95;;;16.60;99.90;;;17.73;58.11;101570.47;4918344;29;20036;-85
2021/05/29 07:14:05;;;;;;;19.98;12.80;;;16.30;99.90;;;17.22;60.81;101560.88;4918455;29;20608;-88
2021/05/29 07:16:35;;;;;;;18.92;11.95;;;15.90;99.90;;;16.64;62.87;101572.47;4917316;29;20107;-86
2021/05/29 07:19:02;;;;;;;21.17;12.73;;;15.30;99.90;;;16.31;63.68;101570.22;4918389;29;20100;-84
2021/05/29 07:21:29;;;;;;;21.45;14.13;;;15.00;99.90;;;16.37;63.75;101572.75;4916764;29;20080;-84
2021/05/29 07:23:56;;;;;;;20.48;13.50;;;14.90;99.90;;;16.83;62.54;101577.19;4916644;29;20032;-83
2021/05/29 07:26:22;;;;;;;19.65;14.00;;;15.10;99.90;;;16.57;63.18;101577.16;4919567;29;20115;-86
2021/05/29 07:28:48;;;;;;;15.95;11.90;;;15.00;99.90;;;16.81;63.04;101585.25;4917895;29;20031;-85
2021/05/29 07:31:14;;;;;;;20.27;13.32;;;15.10;99.90;;;17.57;61.24;101583.16;4917828;29;20714;-84
2021/05/29 07:33:40;;;;;;;16.77;11.73;;;15.80;99.90;;;18.54;57.85;101581.06;4916911;29;20096;-85
2021/05/29 07:36:06;;;;;;;18.70;11.60;;;16.60;99.90;;;19.59;54.87;101583.06;4917633;29;20460;-82
2021/05/29 07:38:33;;;;;;;15.60;10.93;;;17.30;99.90;;;19.00;55.15;101602.09;4917000;29;20028;-84
2021/05/29 07:40:59;;;;;;;15.80;12.00;;;17.20;99.90;;;18.30;57.31;101588.09;4917603;29;20109;-84
2021/05/29 07:43:24;;;;;;;19.30;13.00;;;16.80;99.90;;;18.04;57.26;101594.69;4918389;29;20049;-83
2021/05/29 07:45:51;;;;;;;16.00;12.40;;;16.50;99.90;;;17.79;58.56;101590.72;4918181;29;20043;-84
2021/05/29 07:48:20;;;;;;;20.17;12.90;;;16.20;99.90;;;17.62;58.82;101585.66;4920215;29;20044;-83
2021/05/29 07:51:03;;;;;;;22.17;14.15;;;16.00;99.90;;;17.11;59.77;101593.78;4919654;29;20042;-84
2021/05/29 07:53:49;;;;;;;20.70;14.85;;;15.70;99.90;;;17.36;59.71;101584.50;4922978;29;20039;-84
2021/05/29 07:56:20;;;;;;;19.20;15.40;;;15.60;99.90;;;18.62;56.45;101583.56;4924669;29;20055;-82
2021/05/29 07:58:48;;;;;;;17.85;14.82;;;16.40;99.90;;;19.27;53.76;101588.53;4926706;29;20046;-84
2021/05/29 08:01:16;;;;;;;20.13;16.02;;;17.00;99.90;;;19.42;52.58;101593.91;4927127;29;20472;-85
2021/05/29 08:03:44;;;;;;;17.95;14.50;;;17.20;99.90;;;19.05;53.30;101587.56;4935852;29;20056;-83
2021/05/29 08:06:15;;;;;;;24.80;18.33;;;17.00;99.90;;;18.70;53.88;101595.78;4936858;29;20039;-83
2021/05/29 08:08:43;;;;;;;19.65;16.80;;;16.70;99.90;;;18.49;54.81;101595.56;4932324;29;20078;-82
2021/05/29 08:11:17;;;;;;;22.80;20.05;;;16.50;99.90;;;18.20;56.05;101586.78;4935139;29;20034;-81
2021/05/29 08:13:43;;;;;;;20.83;17.80;;;16.40;99.90;;;18.01;55.62;101592.63;4932668;29;20060;-84
2021/05/29 08:16:10;;;;;;;22.38;16.70;;;16.20;99.90;;;17.71;56.80;101603.97;4933049;29;20103;-84
2021/05/29 08:18:37;;;;;;;22.27;16.73;;;16.00;99.90;;;17.65;57.22;101591.38;4932701;29;20039;-80
2021/05/29 08:21:03;;;;;;;21.98;16.70;;;15.90;99.90;;;17.63;57.96;101596.56;4932897;29;20016;-84
2021/05/29 08:23:30;;;;;;;21.52;16.10;;;15.80;99.90;;;18.04;56.98;101591.84;4920379;29;20028;-84
2021/05/29 08:25:56;;;;;;;16.48;13.98;;;16.10;99.90;;;18.69;54.25;101602.63;4921812;29;20092;-83
2021/05/29 08:28:22;;;;;;;16.75;13.20;;;16.50;99.90;;;18.21;55.37;101596.06;4923196;29;20028;-85
2021/05/29 08:30:48;;;;;;;20.08;13.68;;;16.40;99.90;;;17.98;56.01;101601.06;4922256;29;20040;-85
2021/05/29 08:33:13;;;;;;;15.68;11.80;;;16.20;99.90;;;17.89;56.86;101598.50;4936649;29;20128;-85
2021/05/29 08:35:39;;;;;;;17.45;13.50;;;16.00;99.90;;;17.73;57.48;101604.38;4925761;29;20110;-84
2021/05/29 08:38:06;;;;;;;20.02;14.00;;;16.00;99.90;;;17.61;58.38;101607.44;4920254;29;20044;-85
2021/05/29 08:40:37;;;;;;;17.23;13.57;;;15.90;99.90;;;17.62;58.27;101603.44;4923212;29;20110;-84
2021/05/29 08:43:04;;;;;;;16.92;12.82;;;15.90;99.90;;;17.85;57.10;101600.50;4920225;29;20054;-82
2021/05/29 08:45:31;;;;;;;17.55;13.73;;;16.00;99.90;;;18.08;57.02;101612.47;4926345;29;20024;-84
2021/05/29 08:48:01;;;;;;;14.43;11.73;;;16.10;99.90;;;18.15;56.89;101606.09;4922304;29;20444;-84
2021/05/29 08:51:12;;;;;;;15.98;11.95;;;16.10;99.90;;;18.18;57.03;101603.31;4920113;29;20032;-88
2021/05/29 08:53:25;;;;;;;16.73;11.57;;;16.20;99.90;;;18.16;56.79;101613.38;4925769;29;20489;-86
2021/05/29 08:55:51;;;;;;;15.18;10.63;;;16.20;99.90;;;18.16;56.71;101616.22;4923608;29;20158;-86
2021/05/29 08:58:17;;;;;;;14.25;10.98;;;16.30;99.90;;;18.06;55.99;101617.72;4922457;29;20507;-89
2021/05/29 09:00:43;;;;;;;16.35;11.73;;;16.20;99.90;;;17.59;57.77;101612.69;4922660;29;20032;-83
2021/05/29 09:03:14;;;;;;;15.45;11.35;;;16.10;99.90;;;17.74;57.06;101613.69;4919801;29;20068;-85
2021/05/29 09:05:57;;;;;;;15.13;10.20;;;16.20;99.90;;;18.22;55.51;101620.31;4922462;29;20171;-85
2021/05/29 09:08:27;;;;;;;14.00;9.55;;;16.40;99.90;;;18.90;53.67;101619.81;4946736;29;20032;-83
2021/05/29 09:10:58;;;;;;;11.65;8.27;;;16.80;99.90;;;19.97;50.68;101622.94;4930475;29;20040;-84
2021/05/29 09:13:30;;;;;;;13.85;9.52;;;17.60;99.90;;;19.82;50.40;101615.59;4926268;29;20126;-83
2021/05/29 09:16:03;;;;;;;15.15;9.55;;;17.70;99.90;;;19.58;50.66;101621.13;4933593;29;20054;-84
2021/05/29 09:18:37;;;;;;;17.98;10.13;;;17.50;99.90;;;18.80;53.61;101612.84;4935664;29;20032;-85
2021/05/29 09:21:34;;;;;;;16.30;10.52;;;17.10;99.90;;;18.49;54.37;101621.84;4927282;29;20024;-84
2021/05/29 09:24:17;;;;;;;15.63;11.10;;;16.80;99.90;;;18.34;54.58;101620.03;4927513;29;20032;-86
2021/05/29 09:26:55;;;;;;;15.88;9.85;;;16.50;99.90;;;18.22;56.12;101623.97;4926068;29;20095;-84
2021/05/29 09:29:29;;;;;;;12.27;9.55;;;16.40;99.90;;;18.82;54.38;101626.59;4923772;29;20194;-86
2021/05/29 09:32:08;;;;;;;9.07;7.82;;;16.80;99.90;;;20.17;51.38;101626.25;4923882;29;20032;-83
2021/05/29 09:34:53;;;;;;;14.30;10.63;;;17.70;99.90;;;20.20;49.52;101621.78;4932379;29;20035;-84
2021/05/29 09:37:28;;;;;;;15.20;10.20;;;18.30;99.90;;;20.42;49.64;101630.00;4920586;29;20032;-83
2021/05/29 09:40:11;;;;;;;10.53;8.10;;;18.40;99.90;;;20.74;49.06;101632.09;4923811;29;20119;-82
2021/05/29 09:42:41;;;;;;;10.63;8.38;;;18.60;99.90;;;20.57;49.08;101635.72;4923546;29;20071;-85
2021/05/29 09:45:34;;;;;;;14.68;9.60;;;18.50;99.90;;;19.80;49.61;101635.03;4922948;29;20361;-83
2021/05/29 09:48:17;;;;;;;14.65;9.20;;;18.20;99.90;;;19.83;50.90;101633.41;4918849;29;20129;-82
2021/05/29 09:51:12;;;;;;;10.23;8.13;;;18.10;99.90;;;19.76;50.21;101631.34;4925327;29;20088;-84
2021/05/29 09:53:54;;;;;;;11.35;8.30;;;18.00;99.90;;;19.74;49.98;101636.63;4921407;29;20040;-83
2021/05/29 09:56:40;;;;;;;12.77;8.80;;;17.90;99.90;;;19.83;49.48;101641.91;4936406;29;20412;-86
2021/05/29 09:59:20;;;;;;;12.13;8.02;;;18.00;99.90;;;19.65;49.04;101633.31;4919365;29;20043;-83
2021/05/29 10:01:57;;;;;;;8.35;6.70;;;17.80;99.90;;;19.54;50.70;101640.13;4919374;29;20192;-83
2021/05/29 10:07:12;;;;;;;11.32;7.57;;;17.50;99.90;;;19.28;51.44;101632.66;4921419;29;20170;-81
2021/05/29 10:09:42;;;;;;;11.70;8.07;;;17.40;99.90;;;19.35;51.76;101633.53;4920594;29;20024;-85
2021/05/29 10:12:09;;;;;;;10.70;6.18;;;17.50;99.90;;;19.44;50.77;101639.66;4919797;29;20024;-85
2021/05/29 10:14:35;;;;;;;11.88;8.48;;;17.50;99.90;;;19.17;51.82;101645.94;4921352;29;20136;-85
2021/05/29 10:17:13;;;;;;;13.98;8.57;;;17.40;99.90;;;19.39;51.89;101637.16;4920213;29;20036;-85
2021/05/29 10:19:44;;;;;;;11.07;7.28;;;17.50;99.90;;;19.31;52.19;101644.00;4920512;29;20035;-84
2021/05/29 10:22:15;;;;;;;18.80;9.60;;;17.50;99.90;;;19.11;52.50;101644.63;4921089;29;20024;-87
2021/05/29 10:24:44;;;;;;;13.70;8.25;;;17.30;99.90;;;18.92;52.73;101637.22;4921609;29;20445;-87
2021/05/29 10:27:20;;;;;;;8.15;6.22;;;17.20;99.90;;;19.03;52.89;101637.31;4920855;29;20036;-84
2021/05/29 10:29:46;;;;;;;8.85;7.07;;;17.20;99.90;;;19.81;50.69;101644.34;4918729;29;20361;-84
2021/05/29 10:32:20;;;;;;;13.70;7.07;;;17.80;99.90;;;20.43;48.36;101642.97;4920503;29;20058;-85